Time;durP1;ratioP1;P1;durP2;ratioP2;P2;SDS_P1;SDS_P2;PMS_P1;PMS_P2;Temp;Humidity;BMP_temperature;BMP_pressure;BME280_temperature;BME280_humidity;BME280_pressure;Samples;Min_cycle;Max_cycle;Signal;HPM_P1;HPM_P2
2023/08/01 00:02:20;;;;;;;3.33;1.50;;;;;;;21.84;47.55;93588.97;5070874;28;20552;-75
2023/08/01 00:04:45;;;;;;;3.28;1.45;;;;;;;21.83;47.98;93592.06;5072849;28;20270;-75
2023/08/01 00:07:10;;;;;;;3.90;1.88;;;;;;;21.83;47.65;93589.34;5072103;28;20035;-78
2023/08/01 00:09:36;;;;;;;3.10;2.03;;;;;;;21.66;47.51;93587.41;5072755;28;20051;-76
2023/08/01 00:12:01;;;;;;;2.97;1.83;;;;;;;21.64;47.92;93585.13;5070959;28;20499;-77
2023/08/01 00:14:26;;;;;;;2.22;1.92;;;;;;;21.60;48.08;93584.34;5071444;28;20044;-76
2023/08/01 00:16:52;;;;;;;2.05;1.60;;;;;;;21.57;48.17;93578.94;5071277;28;20046;-77
2023/08/01 00:19:18;;;;;;;2.08;1.30;;;;;;;21.46;47.92;93563.44;5069976;27;20044;-75
2023/08/01 00:21:43;;;;;;;3.83;1.48;;;;;;;21.45;47.88;93572.75;5071927;28;20013;-77
2023/08/01 00:24:09;;;;;;;1.58;1.48;;;;;;;21.53;47.77;93584.31;5071241;28;20241;-75
2023/08/01 00:26:34;;;;;;;1.73;1.60;;;;;;;21.51;47.81;93575.06;5071518;28;20475;-76
2023/08/01 00:29:00;;;;;;;1.73;1.38;;;;;;;21.54;48.06;93579.69;5072453;28;20090;-76
2023/08/01 00:31:25;;;;;;;2.78;1.55;;;;;;;21.38;48.15;93572.72;5069010;28;20048;-76
2023/08/01 00:33:51;;;;;;;2.03;1.60;;;;;;;21.35;47.36;93561.91;5071877;28;20031;-75
2023/08/01 00:36:16;;;;;;;4.43;1.98;;;;;;;21.44;47.68;93581.22;5070491;28;20382;-76
2023/08/01 00:38:43;;;;;;;2.85;1.70;;;;;;;21.35;48.47;93572.75;5084164;27;20039;-75
2023/08/01 00:41:09;;;;;;;3.15;1.70;;;;;;;21.27;47.89;93577.34;5071382;28;20077;-75
2023/08/01 00:43:34;;;;;;;5.32;1.92;;;;;;;21.33;47.66;93581.22;5070754;28;20043;-77
2023/08/01 00:46:02;;;;;;;1.95;1.63;;;;;;;21.36;48.04;93579.69;5070650;28;20020;-78
2023/08/01 00:48:29;;;;;;;1.65;1.40;;;;;;;21.26;48.14;93578.53;5071096;28;20544;-77
2023/08/01 00:50:56;;;;;;;1.95;1.50;;;;;;;21.32;48.26;93574.28;5069547;28;20029;-76
2023/08/01 00:53:23;;;;;;;1.77;1.58;;;;;;;21.33;48.64;93578.53;5072041;28;20032;-78
2023/08/01 00:55:49;;;;;;;2.33;1.70;;;;;;;21.27;48.02;93571.16;5071160;28;20111;-75
2023/08/01 00:58:14;;;;;;;3.28;1.52;;;;;;;21.20;48.13;93558.44;5065320;28;20033;-75
2023/08/01 01:00:40;;;;;;;2.38;1.73;;;;;;;21.16;48.38;93560.38;5069492;28;20033;-75
2023/08/01 01:03:05;;;;;;;3.17;1.65;;;;;;;21.23;48.20;93565.78;5071485;28;20187;-78
2023/08/01 01:05:38;;;;;;;2.38;2.03;;;;;;;21.06;48.78;93550.31;5069476;28;20047;-77
2023/08/01 01:08:04;;;;;;;3.50;1.88;;;;;;;21.12;48.87;93564.97;5069377;28;20032;-76
2023/08/01 01:10:30;;;;;;;2.05;1.48;;;;;;;21.12;48.53;93564.97;5070414;28;20524;-75
2023/08/01 01:12:56;;;;;;;4.53;1.73;;;;;;;21.01;48.34;93546.06;5070374;28;20537;-76
2023/08/01 01:15:21;;;;;;;2.75;2.00;;;;;;;21.07;48.79;93565.38;5069879;28;20348;-75
2023/08/01 01:17:46;;;;;;;4.90;1.83;;;;;;;20.99;48.22;93542.19;5068459;28;20033;-75
2023/08/01 01:20:12;;;;;;;3.28;1.67;;;;;;;21.07;48.31;93546.44;5067270;28;20046;-77
2023/08/01 01:22:38;;;;;;;3.13;1.73;;;;;;;21.04;48.69;93541.81;5070774;28;20117;-76
2023/08/01 01:25:06;;;;;;;2.85;2.42;;;;;;;21.03;48.21;93534.84;5071052;28;20062;-78
2023/08/01 01:27:33;;;;;;;3.00;1.52;;;;;;;21.10;48.70;93551.09;5069677;28;20028;-75
2023/08/01 01:30:00;;;;;;;2.70;1.70;;;;;;;21.04;48.94;93547.22;5070709;28;20034;-78
2023/08/01 01:32:27;;;;;;;1.75;1.50;;;;;;;21.05;48.78;93548.78;5068067;28;20490;-77
2023/08/01 01:34:52;;;;;;;2.15;1.92;;;;;;;21.09;47.86;93544.13;5069621;28;20032;-77
2023/08/01 01:37:18;;;;;;;4.40;1.88;;;;;;;20.97;47.80;93531.00;5068828;28;20096;-77
2023/08/01 01:39:43;;;;;;;2.45;1.70;;;;;;;21.13;47.62;93541.44;5074421;28;20028;-78
2023/08/01 01:42:08;;;;;;;2.35;1.88;;;;;;;21.17;47.38;93550.34;5070735;28;20031;-77
2023/08/01 01:44:34;;;;;;;3.47;1.80;;;;;;;21.06;47.35;93523.28;5069522;28;20058;-78
2023/08/01 01:46:59;;;;;;;2.67;1.67;;;;;;;21.18;47.11;93533.72;5067576;28;20612;-76
2023/08/01 01:49:26;;;;;;;2.70;1.63;;;;;;;21.20;46.83;93544.91;5069078;28;20138;-75
2023/08/01 01:51:51;;;;;;;2.08;1.88;;;;;;;21.08;47.17;93534.47;5068443;28;20028;-77
2023/08/01 01:54:16;;;;;;;2.28;1.83;;;;;;;21.14;46.97;93546.47;5070755;28;20550;-76
2023/08/01 01:56:42;;;;;;;2.13;1.73;;;;;;;21.01;46.96;93534.47;5069253;28;20130;-76
2023/08/01 01:59:07;;;;;;;4.38;1.70;;;;;;;21.10;47.91;93550.31;5069491;28;20029;-77
2023/08/01 02:01:32;;;;;;;3.45;2.00;;;;;;;21.03;47.39;93537.56;5069438;28;20081;-78
2023/08/01 02:03:58;;;;;;;3.78;1.92;;;;;;;21.17;46.88;93553.78;5068733;28;20019;-76
2023/08/01 02:06:23;;;;;;;1.67;1.50;;;;;;;21.05;46.80;93535.25;5069383;28;20138;-77
2023/08/01 02:08:48;;;;;;;3.45;1.90;;;;;;;21.00;46.56;93535.63;5070583;28;21015;-76
2023/08/01 02:11:14;;;;;;;2.05;1.65;;;;;;;21.05;46.45;93540.66;5068884;28;20043;-77
2023/08/01 02:13:39;;;;;;;2.60;1.80;;;;;;;21.12;47.03;93545.31;5076981;28;20040;-76
2023/08/01 02:16:05;;;;;;;2.65;1.60;;;;;;;21.16;46.44;93551.50;5068521;28;20434;-77
2023/08/01 02:18:30;;;;;;;3.08;1.98;;;;;;;21.21;46.08;93541.06;5069497;28;20024;-76
2023/08/01 02:20:55;;;;;;;2.50;1.80;;;;;;;21.27;46.40;93544.13;5066778;28;20311;-76
2023/08/01 02:23:21;;;;;;;5.90;1.58;;;;;;;21.19;48.02;93545.28;5070404;28;20032;-78
2023/08/01 02:25:46;;;;;;;4.55;1.70;;;;;;;21.23;46.91;93546.84;5067741;27;20122;-76
2023/08/01 02:28:12;;;;;;;2.65;1.60;;;;;;;21.18;47.67;93536.41;5069682;28;20019;-76
2023/08/01 02:30:38;;;;;;;6.60;1.60;;;;;;;21.19;47.37;93537.19;5068762;28;20023;-75
2023/08/01 02:33:03;;;;;;;3.13;1.40;;;;;;;21.21;47.50;93540.28;5068684;28;20044;-76
2023/08/01 02:35:29;;;;;;;2.17;1.60;;;;;;;21.22;47.84;93549.91;5067188;28;20069;-78
2023/08/01 02:37:55;;;;;;;3.42;1.70;;;;;;;21.11;47.42;93549.94;5068033;28;20077;-77
2023/08/01 02:40:20;;;;;;;4.93;1.73;;;;;;;21.12;47.32;93543.34;5070751;28;20062;-77
2023/08/01 02:42:46;;;;;;;2.08;1.77;;;;;;;21.03;47.17;93535.63;5068377;28;20099;-77
2023/08/01 02:45:11;;;;;;;1.88;1.60;;;;;;;21.01;47.29;93545.31;5065319;28;20058;-77
2023/08/01 02:47:37;;;;;;;3.83;1.80;;;;;;;20.86;45.43;93538.28;5068190;28;20477;-77
2023/08/01 02:50:05;;;;;;;2.00;1.73;;;;;;;20.95;45.74;93554.94;5068115;27;20498;-76
2023/08/01 02:52:31;;;;;;;4.75;1.63;;;;;;;20.87;46.27;93548.75;5066608;28;20155;-77
2023/08/01 02:54:56;;;;;;;2.55;1.67;;;;;;;20.88;46.45;93541.41;5068627;28;20539;-77
2023/08/01 02:57:22;;;;;;;1.58;1.48;;;;;;;20.92;46.11;93553.03;5069586;28;20043;-78
2023/08/01 02:59:47;;;;;;;3.13;1.65;;;;;;;20.79;45.92;93543.69;5069683;28;20044;-79
2023/08/01 03:02:13;;;;;;;2.05;1.65;;;;;;;20.76;46.21;93529.03;5069072;28;20418;-77
2023/08/01 03:04:38;;;;;;;2.08;1.70;;;;;;;20.85;46.01;93544.84;5066404;28;20043;-77
2023/08/01 03:07:04;;;;;;;4.05;1.70;;;;;;;20.77;46.08;93535.19;5066236;28;20058;-77
2023/08/01 03:09:29;;;;;;;2.33;2.13;;;;;;;20.72;46.03;93530.94;5068606;28;20021;-75
2023/08/01 03:11:54;;;;;;;3.53;2.22;;;;;;;20.74;46.12;93552.16;5068119;28;20108;-75
2023/08/01 03:14:20;;;;;;;2.38;2.17;;;;;;;20.60;46.19;93523.19;5067125;28;20045;-77
2023/08/01 03:16:45;;;;;;;4.45;2.05;;;;;;;20.64;45.74;93540.19;5069779;28;20441;-76
2023/08/01 03:19:11;;;;;;;3.20;1.95;;;;;;;20.64;46.53;93536.69;5065999;28;20034;-78
2023/08/01 03:21:36;;;;;;;3.28;1.60;;;;;;;20.57;46.71;93529.38;5069621;28;20424;-77
2023/08/01 03:24:08;;;;;;;2.00;1.50;;;;;;;20.53;46.46;93534.00;5068201;28;20051;-78
2023/08/01 03:26:34;;;;;;;3.75;1.67;;;;;;;20.54;46.82;93539.00;5067530;28;20040;-77
2023/08/01 03:28:59;;;;;;;2.58;1.80;;;;;;;20.53;47.33;93545.56;5067221;28;20036;-78
2023/08/01 03:31:25;;;;;;;2.83;1.77;;;;;;;20.43;46.64;93538.22;5068984;28;20038;-76
2023/08/01 03:33:50;;;;;;;3.65;2.13;;;;;;;20.43;47.35;93554.44;5067448;28;20020;-75
2023/08/01 03:36:16;;;;;;;3.30;1.85;;;;;;;20.39;46.94;93556.31;5065212;28;20036;-75
2023/08/01 03:38:41;;;;;;;3.28;1.90;;;;;;;20.25;47.03;93528.50;5074468;28;20029;-78
2023/08/01 03:41:06;;;;;;;2.13;1.90;;;;;;;20.37;47.34;93553.25;5066724;28;20375;-77
2023/08/01 03:43:32;;;;;;;3.28;2.00;;;;;;;20.35;47.72;93555.53;5066273;28;20036;-77
2023/08/01 03:45:57;;;;;;;5.90;1.70;;;;;;;20.29;47.58;93557.03;5067419;28;20036;-76
2023/08/01 03:48:23;;;;;;;4.78;2.03;;;;;;;20.29;46.89;93559.75;5069524;28;20013;-76
2023/08/01 03:50:48;;;;;;;2.33;1.67;;;;;;;20.25;47.25;93550.88;5068907;28;20135;-76
2023/08/01 03:53:13;;;;;;;2.65;1.52;;;;;;;20.32;47.74;93556.31;5066054;28;20427;-78
2023/08/01 03:55:39;;;;;;;2.63;2.08;;;;;;;20.25;47.84;93545.47;5064455;28;20028;-78
2023/08/01 03:58:04;;;;;;;2.50;2.03;;;;;;;20.31;48.03;93553.97;5069536;28;20031;-76
2023/08/01 04:00:32;;;;;;;2.85;1.90;;;;;;;20.13;47.91;93543.09;5067757;28;20036;-77
2023/08/01 04:02:58;;;;;;;6.43;2.33;;;;;;;20.26;47.25;93554.34;5065292;28;20040;-76
2023/08/01 04:05:24;;;;;;;3.97;2.13;;;;;;;20.36;47.19;93565.19;5064832;28;20039;-76
2023/08/01 04:07:49;;;;;;;9.15;2.83;;;;;;;20.39;47.18;93559.00;5065641;28;20025;-76
2023/08/01 04:10:15;;;;;;;6.18;2.55;;;;;;;20.38;47.97;93554.00;5068266;28;20044;-76
2023/08/01 04:12:42;;;;;;;3.47;2.20;;;;;;;20.49;48.25;93566.38;5067174;28;20112;-77
2023/08/01 04:15:08;;;;;;;5.20;2.35;;;;;;;20.53;47.74;93559.06;5068158;28;20402;-78
2023/08/01 04:17:33;;;;;;;4.90;2.13;;;;;;;20.59;47.96;93565.63;5065421;28;20068;-77
2023/08/01 04:19:59;;;;;;;7.05;2.67;;;;;;;20.51;47.71;93553.28;5067667;28;20147;-77
2023/08/01 04:22:24;;;;;;;4.18;2.45;;;;;;;20.55;47.70;93564.88;5068386;28;20441;-76
2023/08/01 04:24:50;;;;;;;7.57;3.08;;;;;;;20.71;48.03;93569.94;5067835;28;20039;-76
2023/08/01 04:27:16;;;;;;;3.80;2.83;;;;;;;20.74;48.71;93569.16;5065783;28;20028;-76
2023/08/01 04:29:41;;;;;;;3.63;2.90;;;;;;;20.70;49.02;93570.31;5069566;28;20387;-78
2023/08/01 04:32:07;;;;;;;4.60;2.72;;;;;;;20.80;48.72;93569.56;5065254;28;20048;-78
2023/08/01 04:34:32;;;;;;;5.22;2.53;;;;;;;20.78;49.06;93569.16;5065679;28;21122;-78
2023/08/01 04:36:58;;;;;;;5.05;3.00;;;;;;;20.73;49.66;93558.75;5065179;28;20078;-78
2023/08/01 04:39:23;;;;;;;8.32;4.75;;;;;;;20.78;50.08;93569.16;5070092;28;20032;-76
2023/08/01 04:41:49;;;;;;;8.20;5.07;;;;;;;20.72;50.83;93570.69;5066444;28;20159;-76
2023/08/01 04:44:15;;;;;;;5.75;4.05;;;;;;;20.81;50.67;93571.88;5069497;28;20036;-78
2023/08/01 04:46:40;;;;;;;6.32;4.35;;;;;;;20.73;50.47;93564.16;5077102;28;20032;-76
2023/08/01 04:49:06;;;;;;;7.10;4.55;;;;;;;20.71;50.34;93569.16;5069119;28;20104;-77
2023/08/01 04:51:31;;;;;;;7.25;4.90;;;;;;;20.64;50.96;93564.50;5072172;28;20446;-76
2023/08/01 04:53:56;;;;;;;6.85;4.68;;;;;;;20.72;50.27;93557.19;5069400;28;20036;-76
2023/08/01 04:56:22;;;;;;;5.43;4.30;;;;;;;20.77;49.86;93551.41;5073618;28;20040;-77
2023/08/01 04:58:47;;;;;;;6.13;3.85;;;;;;;20.75;49.64;93534.78;5067027;28;20585;-77
2023/08/01 05:01:13;;;;;;;7.80;4.20;;;;;;;21.01;48.86;93575.81;5073150;28;20124;-76
2023/08/01 05:03:38;;;;;;;7.55;5.13;;;;;;;21.06;49.29;93571.94;5069391;28;20489;-77
2023/08/01 05:06:03;;;;;;;7.22;4.45;;;;;;;20.95;49.55;93560.34;5071286;28;20032;-78
2023/08/01 05:08:29;;;;;;;12.68;5.07;;;;;;;20.88;50.16;93552.22;5069788;28;20885;-76
2023/08/01 05:10:54;;;;;;;9.40;5.93;;;;;;;20.95;49.59;93549.53;5070386;28;20054;-76
2023/08/01 05:13:20;;;;;;;11.75;5.00;;;;;;;21.10;49.84;93561.13;5070589;28;20040;-76
2023/08/01 05:15:49;;;;;;;9.23;5.20;;;;;;;21.15;49.54;93556.13;5069799;28;20557;-76
2023/08/01 05:18:17;;;;;;;6.97;4.68;;;;;;;21.22;49.00;93572.34;5070655;28;20032;-76
2023/08/01 05:20:43;;;;;;;11.40;4.32;;;;;;;21.21;48.74;93573.50;5070626;28;20406;-78
2023/08/01 05:23:08;;;;;;;8.88;4.60;;;;;;;21.00;48.42;93566.16;5069905;28;20039;-77
2023/08/01 05:25:34;;;;;;;6.60;4.85;;;;;;;21.01;48.76;93564.22;5070591;28;20622;-77
2023/08/01 05:27:59;;;;;;;10.35;4.43;;;;;;;20.92;49.43;93575.38;5074147;28;20466;-76
2023/08/01 05:30:25;;;;;;;5.57;4.15;;;;;;;20.83;49.21;93568.78;5072030;28;20035;-76
2023/08/01 05:32:50;;;;;;;8.82;4.57;;;;;;;20.94;49.13;93566.91;5068257;28;20517;-76
2023/08/01 05:35:17;;;;;;;7.35;4.50;;;;;;;20.97;48.98;93568.84;5068913;28;20561;-76
2023/08/01 05:37:42;;;;;;;6.22;4.20;;;;;;;20.85;49.14;93580.00;5069295;28;20032;-77
2023/08/01 05:40:08;;;;;;;17.73;4.38;;;;;;;20.96;48.68;93570.00;5069108;28;20924;-76
2023/08/01 05:42:34;;;;;;;9.15;4.50;;;;;;;20.78;49.03;93571.84;5070970;28;20038;-77
2023/08/01 05:44:59;;;;;;;5.35;4.32;;;;;;;20.64;49.43;93566.41;5069009;28;20036;-75
2023/08/01 05:47:24;;;;;;;7.63;3.95;;;;;;;20.76;49.56;93568.78;5068162;28;20036;-76
2023/08/01 05:49:50;;;;;;;9.00;4.50;;;;;;;20.63;48.46;93565.66;5069214;28;20905;-78
2023/08/01 05:52:15;;;;;;;6.35;3.70;;;;;;;20.80;49.72;93561.44;5069647;28;20037;-76
2023/08/01 05:54:41;;;;;;;4.60;4.18;;;;;;;20.90;49.00;93561.50;5068259;28;20012;-77
2023/08/01 05:57:08;;;;;;;8.98;4.22;;;;;;;21.02;48.76;93568.47;5069702;28;20376;-78
2023/08/01 05:59:33;;;;;;;7.28;4.00;;;;;;;21.03;47.93;93561.88;5067425;28;20067;-77
2023/08/01 06:01:59;;;;;;;7.75;3.47;;;;;;;20.99;47.68;93571.94;5074935;28;20510;-77
2023/08/01 06:04:24;;;;;;;6.93;3.17;;;;;;;21.07;47.61;93562.66;5075336;28;20082;-79
2023/08/01 06:06:50;;;;;;;4.95;3.67;;;;;;;21.12;47.25;93554.16;5067167;28;20095;-75
2023/08/01 06:09:15;;;;;;;7.45;3.50;;;;;;;21.34;47.00;93568.47;5068278;28;20024;-78
2023/08/01 06:11:41;;;;;;;9.70;3.20;;;;;;;21.26;46.60;93554.19;5064122;28;20075;-78
2023/08/01 06:14:06;;;;;;;9.60;3.22;;;;;;;21.22;46.20;93558.03;5067506;28;20513;-76
2023/08/01 06:16:31;;;;;;;3.10;2.72;;;;;;;21.06;45.61;93563.06;5067800;28;20349;-76
2023/08/01 06:18:58;;;;;;;4.15;2.05;;;;;;;21.26;46.33;93565.00;5069630;28;20027;-75
2023/08/01 06:21:23;;;;;;;8.70;3.25;;;;;;;21.34;46.19;93560.38;5064185;28;20113;-74
2023/08/01 06:23:48;;;;;;;10.48;3.05;;;;;;;21.42;47.91;93556.50;5063869;28;20044;-78
2023/08/01 06:26:15;;;;;;;4.75;2.70;;;;;;;21.52;46.15;93554.94;5064701;28;20039;-77
2023/08/01 06:28:41;;;;;;;5.82;2.42;;;;;;;21.66;44.85;93555.72;5063743;28;20474;-76
2023/08/01 06:31:06;;;;;;;5.90;2.17;;;;;;;21.68;43.96;93566.16;5062714;28;20024;-78
2023/08/01 06:33:31;;;;;;;4.88;2.67;;;;;;;21.62;44.75;93549.53;5066151;28;20497;-78
2023/08/01 06:35:57;;;;;;;4.32;2.20;;;;;;;21.73;43.83;93552.25;5062733;28;20413;-77
2023/08/01 06:38:22;;;;;;;7.20;2.47;;;;;;;21.75;44.50;93553.41;5070021;28;20559;-78
2023/08/01 06:40:47;;;;;;;3.10;2.50;;;;;;;21.76;43.35;93548.75;5069632;28;20642;-77
2023/08/01 06:43:13;;;;;;;4.05;2.00;;;;;;;21.72;43.91;93534.44;5072476;28;20030;-76
2023/08/01 06:45:38;;;;;;;3.47;1.80;;;;;;;21.92;42.99;93546.41;5070968;28;21027;-76
2023/08/01 06:48:04;;;;;;;4.28;1.70;;;;;;;21.88;41.85;93551.06;5071091;28;20036;-76
2023/08/01 06:50:29;;;;;;;2.80;2.13;;;;;;;21.98;42.08;93547.53;5067959;28;20437;-77
2023/08/01 06:52:54;;;;;;;4.45;2.40;;;;;;;22.10;42.36;93547.09;5067879;28;20517;-79
2023/08/01 06:55:20;;;;;;;3.05;2.10;;;;;;;22.16;42.17;93545.53;5069337;28;20032;-76
2023/08/01 06:57:45;;;;;;;3.78;2.15;;;;;;;22.15;41.46;93549.41;5065435;28;20486;-77
2023/08/01 07:00:11;;;;;;;13.00;3.08;;;;;;;22.24;41.86;93552.50;5068427;28;20036;-76
2023/08/01 07:02:36;;;;;;;5.53;2.30;;;;;;;22.29;41.89;93554.06;5059910;28;20028;-77
2023/08/01 07:05:02;;;;;;;9.93;2.35;;;;;;;22.33;41.82;93546.69;5060523;28;20044;-77
2023/08/01 07:07:27;;;;;;;6.10;2.78;;;;;;;22.44;42.58;93554.78;5058580;28;20071;-76
2023/08/01 07:09:53;;;;;;;4.28;2.45;;;;;;;22.50;42.41;93553.16;5058920;28;20554;-78
2023/08/01 07:12:18;;;;;;;5.90;2.08;;;;;;;22.56;42.15;93546.94;5064003;28;20035;-76
2023/08/01 07:14:43;;;;;;;4.28;2.22;;;;;;;22.65;42.58;93543.81;5057381;28;20505;-78
2023/08/01 07:17:09;;;;;;;5.70;2.33;;;;;;;22.64;42.42;93539.53;5059879;28;20032;-77
2023/08/01 07:19:37;;;;;;;5.22;2.08;;;;;;;22.61;41.66;93529.50;5058730;28;20070;-76
2023/08/01 07:22:02;;;;;;;6.30;2.63;;;;;;;22.75;41.90;93537.56;5066147;28;20524;-75
2023/08/01 07:24:28;;;;;;;4.93;2.00;;;;;;;22.76;42.91;93528.25;5063671;28;20040;-78
2023/08/01 07:26:53;;;;;;;4.43;2.67;;;;;;;22.66;41.95;93526.38;5063811;28;20072;-77
2023/08/01 07:29:18;;;;;;;5.03;2.70;;;;;;;22.77;42.23;93518.97;5064718;28;20489;-78
2023/08/01 07:31:44;;;;;;;12.68;3.75;;;;;;;22.80;41.64;93522.81;5066110;28;20406;-78
2023/08/01 07:34:09;;;;;;;5.55;2.38;;;;;;;22.91;41.70;93529.75;5074383;28;20024;-78
2023/08/01 07:36:35;;;;;;;3.80;2.67;;;;;;;22.75;41.09;93521.28;5072259;28;20028;-78
2023/08/01 07:39:00;;;;;;;5.78;2.78;;;;;;;22.75;41.85;93532.13;5073386;28;20410;-78
2023/08/01 07:41:26;;;;;;;5.38;2.17;;;;;;;22.80;42.07;93534.41;5070178;28;20036;-76
2023/08/01 07:43:51;;;;;;;9.23;2.63;;;;;;;22.74;41.84;93522.44;5075867;28;20592;-76
2023/08/01 07:46:16;;;;;;;4.05;2.55;;;;;;;22.72;42.00;93516.66;5065085;28;20031;-76
2023/08/01 07:48:42;;;;;;;8.82;3.17;;;;;;;22.57;42.00;93531.47;5066496;28;20031;-76
2023/08/01 07:51:07;;;;;;;7.07;2.63;;;;;;;22.52;42.35;93518.34;5065468;28;20036;-78
2023/08/01 07:53:35;;;;;;;9.07;3.33;;;;;;;22.68;42.76;93515.94;5071030;28;20111;-78
2023/08/01 07:56:06;;;;;;;6.07;2.33;;;;;;;22.63;42.41;93508.97;5071246;28;20036;-77
2023/08/01 07:58:32;;;;;;;5.70;2.47;;;;;;;22.77;43.23;93520.91;5067393;28;20052;-76
2023/08/01 08:01:05;;;;;;;5.88;2.95;;;;;;;22.90;42.81;93528.19;5069486;28;20111;-77
2023/08/01 08:03:30;;;;;;;9.73;3.22;;;;;;;22.97;42.45;93517.31;5069652;28;20032;-76
2023/08/01 08:05:59;;;;;;;4.38;2.33;;;;;;;22.91;42.09;93512.69;5068279;28;20036;-76
2023/08/01 08:08:25;;;;;;;5.00;2.92;;;;;;;23.10;42.82;93517.59;5064810;28;20051;-76
2023/08/01 08:10:50;;;;;;;4.80;2.65;;;;;;;23.03;41.79;93510.28;5049534;28;20037;-77
2023/08/01 08:13:16;;;;;;;6.75;2.17;;;;;;;22.97;42.80;93501.03;5063484;28;20722;-76
2023/08/01 08:15:41;;;;;;;7.50;3.15;;;;;;;22.94;42.22;93507.25;5067795;28;20028;-76
2023/08/01 08:18:07;;;;;;;7.82;2.97;;;;;;;22.99;41.98;93523.09;5066693;28;20724;-78
2023/08/01 08:20:40;;;;;;;8.40;2.17;;;;;;;23.01;42.68;93503.72;5070839;28;20269;-76
2023/08/01 08:23:05;;;;;;;5.13;2.53;;;;;;;23.04;42.76;93505.63;5076253;28;20532;-77
2023/08/01 08:25:30;;;;;;;3.28;2.50;;;;;;;23.02;42.19;93497.91;5075423;28;20155;-79
2023/08/01 08:27:56;;;;;;;7.75;2.60;;;;;;;22.93;41.75;93484.00;5073673;28;20465;-78
2023/08/01 08:30:21;;;;;;;5.65;2.70;;;;;;;22.86;41.81;93505.75;5073229;28;20456;-77
2023/08/01 08:32:47;;;;;;;7.78;3.10;;;;;;;22.65;43.29;93495.78;5074489;28;20598;-77
2023/08/01 08:35:12;;;;;;;5.60;2.58;;;;;;;22.71;42.65;93488.00;5070810;28;20036;-76
2023/08/01 08:37:38;;;;;;;8.07;3.15;;;;;;;22.48;42.88;93487.78;5069757;28;20139;-77
2023/08/01 08:40:03;;;;;;;9.07;2.92;;;;;;;22.52;42.94;93489.28;5073293;27;20305;-78
2023/08/01 08:42:29;;;;;;;9.95;3.30;;;;;;;22.58;43.38;93476.88;5076543;28;20024;-78
2023/08/01 08:44:58;;;;;;;6.07;2.60;;;;;;;22.75;43.24;93480.63;5077085;28;20095;-77
2023/08/01 08:47:25;;;;;;;8.05;3.33;;;;;;;22.88;42.24;93487.13;5078383;28;20063;-78
2023/08/01 08:49:52;;;;;;;4.53;2.92;;;;;;;23.00;43.03;93489.38;5074598;28;20036;-77
2023/08/01 08:52:18;;;;;;;8.63;3.85;;;;;;;22.98;42.42;93478.16;5072720;28;20031;-76
2023/08/01 08:54:45;;;;;;;5.55;3.22;;;;;;;23.06;42.86;93479.66;5073248;28;20054;-77
2023/08/01 08:57:10;;;;;;;6.60;3.50;;;;;;;23.18;42.46;93483.81;5072201;27;20446;-77
2023/08/01 08:59:39;;;;;;;5.03;3.30;;;;;;;23.16;42.09;93461.75;5069124;28;20511;-77
2023/08/01 09:02:04;;;;;;;5.15;2.92;;;;;;;23.32;43.65;93477.50;5069575;28;20028;-77
2023/08/01 09:04:31;;;;;;;7.45;3.20;;;;;;;23.25;42.01;93467.47;5067007;28;20041;-77
2023/08/01 09:07:07;;;;;;;4.90;2.88;;;;;;;23.32;41.62;93469.38;5069089;28;20016;-77
2023/08/01 09:09:32;;;;;;;3.60;2.83;;;;;;;23.38;42.39;93470.44;5073763;28;20039;-75
2023/08/01 09:11:58;;;;;;;3.53;2.95;;;;;;;23.37;42.18;93447.19;5068567;28;20090;-77
2023/08/01 09:14:24;;;;;;;10.73;3.67;;;;;;;23.59;41.36;93459.41;5068907;28;20115;-76
2023/08/01 09:16:50;;;;;;;5.72;3.53;;;;;;;23.79;43.16;93459.59;5067952;28;20042;-76
2023/08/01 09:19:19;;;;;;;3.42;3.13;;;;;;;23.87;41.67;93464.53;5067114;28;20482;-77
2023/08/01 09:21:46;;;;;;;6.18;3.67;;;;;;;23.90;42.62;93457.53;5071009;28;20032;-77
2023/08/01 09:24:21;;;;;;;4.75;3.33;;;;;;;23.95;43.30;93451.66;5084626;27;20159;-78
2023/08/01 09:26:49;;;;;;;6.55;3.90;;;;;;;24.10;42.99;93449.53;5069395;28;20036;-78
2023/08/01 09:29:17;;;;;;;9.20;3.50;;;;;;;24.08;40.96;93451.88;5067015;28;20514;-78
2023/08/01 09:31:43;;;;;;;6.95;3.50;;;;;;;24.14;40.74;93448.34;5070256;28;20040;-76
2023/08/01 09:34:26;;;;;;;7.00;3.55;;;;;;;24.35;42.58;93439.13;5067168;28;20050;-76
2023/08/01 09:36:57;;;;;;;4.80;3.15;;;;;;;24.26;41.28;93425.28;5069094;28;20179;-76
2023/08/01 09:39:22;;;;;;;6.60;3.53;;;;;;;24.39;41.89;93445.31;5074199;28;20043;-76
2023/08/01 09:42:01;;;;;;;9.13;4.20;;;;;;;24.39;42.76;93434.44;5067083;28;20040;-76
2023/08/01 09:44:29;;;;;;;7.53;3.17;;;;;;;24.15;40.48;93439.00;5069278;28;20391;-77
2023/08/01 09:46:59;;;;;;;4.90;3.90;;;;;;;24.08;39.56;93430.16;5067140;28;20350;-78
2023/08/01 09:49:24;;;;;;;8.32;3.90;;;;;;;24.06;40.75;93410.75;5069284;28;20559;-77
2023/08/01 09:51:50;;;;;;;6.75;4.07;;;;;;;24.00;40.76;93430.22;5069473;28;20037;-78
2023/08/01 09:54:17;;;;;;;4.63;3.25;;;;;;;23.90;40.69;93442.00;5067279;28;20085;-76
2023/08/01 09:56:45;;;;;;;6.35;3.45;;;;;;;23.85;41.08;93433.53;5068076;28;20036;-77
2023/08/01 09:59:11;;;;;;;5.00;3.53;;;;;;;23.81;40.86;93430.84;5073661;28;20064;-76
2023/08/01 10:01:39;;;;;;;8.80;3.83;;;;;;;23.93;40.46;93422.19;5064541;28;20123;-77
2023/08/01 10:04:05;;;;;;;8.25;4.32;;;;;;;23.98;40.46;93410.88;5071307;28;20017;-76
2023/08/01 10:06:33;;;;;;;9.65;3.72;;;;;;;24.02;41.04;93395.28;5064378;28;20024;-76
2023/08/01 10:08:59;;;;;;;6.65;3.25;;;;;;;24.19;41.22;93398.22;5066663;28;20024;-78
2023/08/01 10:11:26;;;;;;;6.35;4.15;;;;;;;24.35;40.13;93406.50;5065166;28;20037;-78
2023/08/01 10:13:52;;;;;;;8.40;3.33;;;;;;;24.14;40.73;93385.09;5068495;28;20542;-77
2023/08/01 10:16:17;;;;;;;6.72;3.58;;;;;;;24.23;40.08;93382.63;5064957;28;20040;-76
2023/08/01 10:18:43;;;;;;;42.28;6.30;;;;;;;24.35;41.47;93395.63;5069202;28;20453;-76
2023/08/01 10:21:13;;;;;;;6.20;4.05;;;;;;;24.51;41.69;93387.66;5070075;28;20040;-76
2023/08/01 10:23:39;;;;;;;8.43;4.45;;;;;;;24.54;40.01;93381.38;5066157;28;20059;-75
2023/08/01 10:26:08;;;;;;;6.63;3.90;;;;;;;24.62;43.39;93382.81;5065478;28;20515;-75
2023/08/01 10:28:35;;;;;;;20.52;4.55;;;;;;;24.46;40.25;93396.25;5065519;28;20956;-77
2023/08/01 10:31:15;;;;;;;4.45;3.80;;;;;;;24.56;39.71;93387.19;5067727;28;20142;-76
2023/08/01 10:33:43;;;;;;;12.98;5.70;;;;;;;24.79;42.12;93387.22;5069423;28;20081;-76
2023/08/01 10:36:27;;;;;;;6.40;3.80;;;;;;;24.76;40.45;93379.91;5063167;28;20591;-75
2023/08/01 10:38:57;;;;;;;7.30;4.10;;;;;;;24.79;39.96;93375.56;5064846;28;20037;-75
2023/08/01 10:41:32;;;;;;;4.07;3.58;;;;;;;24.98;39.45;93361.25;5070208;28;20041;-75
2023/08/01 10:44:24;;;;;;;3.75;3.33;;;;;;;25.17;40.44;93370.66;5066186;28;20032;-76
2023/08/01 10:47:00;;;;;;;5.15;3.83;;;;;;;25.09;39.50;93347.47;5063940;28;20505;-75
2023/08/01 10:49:43;;;;;;;10.80;3.60;;;;;;;25.15;38.03;93349.31;5067164;28;20048;-76
2023/08/01 10:52:28;;;;;;;4.80;4.15;;;;;;;25.28;38.27;93357.63;5063187;28;20885;-75
2023/08/01 10:54:59;;;;;;;6.85;3.50;;;;;;;25.23;39.49;93361.59;5072817;28;20043;-76
2023/08/01 10:57:25;;;;;;;9.10;3.60;;;;;;;25.46;37.53;93360.81;5064459;28;20040;-76
2023/08/01 10:59:50;;;;;;;5.85;4.43;;;;;;;25.47;38.39;93356.88;5068364;28;20068;-76
2023/08/01 11:02:24;;;;;;;5.20;3.47;;;;;;;25.52;38.55;93350.97;5064281;28;20027;-75
2023/08/01 11:05:00;;;;;;;6.53;3.55;;;;;;;25.43;38.32;93337.13;5066921;28;20092;-76
2023/08/01 11:07:25;;;;;;;6.20;3.85;;;;;;;25.51;38.03;93333.09;5064925;28;20036;-75
2023/08/01 11:10:07;;;;;;;3.72;3.40;;;;;;;25.64;37.62;93336.72;5064558;28;20352;-75
2023/08/01 11:12:41;;;;;;;7.55;3.83;;;;;;;25.58;37.97;93302.22;5065517;28;20055;-76
2023/08/01 11:15:09;;;;;;;8.63;3.80;;;;;;;25.51;37.33;93289.56;5066898;28;20028;-78
2023/08/01 11:17:42;;;;;;;73.03;8.57;;;;;;;25.63;36.74;93307.19;5063499;28;20040;-76
2023/08/01 11:20:10;;;;;;;9.53;3.67;;;;;;;25.76;37.19;93310.03;5066415;28;20171;-75
2023/08/01 11:22:37;;;;;;;6.63;3.00;;;;;;;25.88;36.90;93317.56;5064881;28;20043;-76
2023/08/01 11:25:03;;;;;;;4.63;3.33;;;;;;;25.65;36.01;93297.41;5064561;28;20067;-76
2023/08/01 11:27:28;;;;;;;6.55;3.15;;;;;;;25.57;35.54;93290.56;5059776;28;20653;-76
2023/08/01 11:29:55;;;;;;;2.80;2.58;;;;;;;26.01;36.85;93313.00;5066058;28;20130;-76
2023/08/01 11:32:21;;;;;;;10.70;4.05;;;;;;;25.92;35.99;93313.59;5062180;28;20251;-75